createdAt,value
2019-05-20T00:00:07.679Z,92.70
2019-05-20T00:02:36.564Z,92.80
2019-05-20T00:05:05.582Z,92.70
2019-05-20T00:07:34.416Z,92.60
2019-05-20T00:10:03.483Z,92.70
2019-05-20T00:12:32.243Z,92.70
2019-05-20T00:15:01.100Z,92.70
2019-05-20T00:17:29.966Z,92.50
2019-05-20T00:19:58.751Z,92.40
2019-05-20T00:22:27.595Z,92.50
2019-05-20T00:24:56.387Z,92.60
2019-05-20T00:27:25.348Z,92.30
2019-05-20T00:29:54.144Z,92.50
2019-05-20T00:32:22.911Z,92.60
2019-05-20T00:34:51.691Z,92.50
2019-05-20T00:37:20.502Z,92.90
2019-05-20T00:39:49.276Z,92.70
2019-05-20T00:42:18.062Z,92.70
2019-05-20T00:44:46.903Z,93.20
2019-05-20T00:47:15.838Z,92.80
2019-05-20T00:49:44.712Z,92.90
2019-05-20T00:52:13.545Z,92.90
2019-05-20T00:54:42.370Z,92.80
2019-05-20T00:57:11.225Z,92.90
2019-05-20T00:59:40.083Z,92.70
2019-05-20T01:02:08.927Z,92.70
2019-05-20T01:04:37.685Z,92.70
2019-05-20T01:07:06.613Z,92.50
2019-05-20T01:09:35.395Z,92.70
2019-05-20T01:12:04.287Z,92.70
2019-05-20T01:14:33.066Z,93.00
2019-05-20T01:17:02.055Z,92.70
2019-05-20T01:19:30.884Z,92.80
2019-05-20T01:21:59.756Z,92.70
2019-05-20T01:24:28.600Z,92.60
2019-05-20T01:26:57.733Z,92.80
2019-05-20T01:29:26.528Z,93.00
2019-05-20T01:31:55.370Z,92.70
2019-05-20T01:34:24.222Z,92.80
2019-05-20T01:36:53.075Z,93.20
2019-05-20T01:39:21.878Z,92.90
2019-05-20T01:41:50.694Z,93.00
2019-05-20T01:44:19.481Z,92.70
2019-05-20T01:46:48.264Z,92.70
2019-05-20T01:49:17.115Z,92.60
2019-05-20T01:51:45.979Z,92.60
2019-05-20T01:54:14.824Z,92.50
2019-05-20T01:56:43.630Z,92.50
2019-05-20T01:59:12.430Z,92.60
2019-05-20T02:01:41.255Z,92.40
2019-05-20T02:04:10.078Z,92.30
2019-05-20T02:06:38.891Z,92.40
2019-05-20T02:09:09.246Z,92.40
2019-05-20T02:11:38.164Z,92.50
2019-05-20T02:14:11.005Z,92.40
2019-05-20T02:16:39.893Z,92.50
2019-05-20T02:19:08.836Z,92.40
2019-05-20T02:21:37.654Z,92.10
2019-05-20T02:24:06.632Z,92.20
2019-05-20T02:26:35.637Z,92.30
2019-05-20T02:29:04.559Z,92.10
2019-05-20T02:31:33.342Z,92.40
2019-05-20T02:34:02.195Z,92.30
2019-05-20T02:36:30.949Z,92.40
2019-05-20T02:38:59.770Z,92.30
2019-05-20T02:41:28.528Z,92.40
2019-05-20T02:43:57.336Z,92.40
2019-05-20T02:46:26.285Z,92.60
2019-05-20T02:48:55.092Z,92.40
2019-05-20T02:51:33.143Z,92.70
2019-05-20T02:54:02.659Z,92.70
2019-05-20T02:56:32.317Z,92.30
2019-05-20T02:59:01.319Z,92.20
2019-05-20T03:01:30.186Z,92.30
2019-05-20T03:04:10.748Z,92.70
2019-05-20T03:06:29.444Z,92.30
2019-05-20T03:08:58.294Z,92.10
2019-05-20T03:11:27.176Z,92.10
2019-05-20T03:13:55.970Z,92.00
2019-05-20T03:16:24.791Z,92.50
2019-05-20T03:18:53.566Z,92.20
2019-05-20T03:21:22.372Z,92.10
2019-05-20T03:23:51.190Z,92.30
2019-05-20T03:26:20.095Z,92.00
2019-05-20T03:28:48.876Z,92.00
2019-05-20T03:31:17.629Z,91.90
2019-05-20T03:33:46.450Z,92.00
2019-05-20T03:36:15.243Z,92.00
2019-05-20T03:38:44.389Z,92.30
2019-05-20T03:41:13.168Z,92.30
2019-05-20T03:43:41.929Z,92.20
2019-05-20T03:46:10.683Z,92.10
2019-05-20T03:48:39.456Z,92.20
2019-05-20T03:51:08.277Z,92.40
2019-05-20T03:53:37.145Z,92.40
2019-05-20T03:56:06.003Z,92.30
2019-05-20T03:58:34.797Z,92.30
2019-05-20T04:01:03.645Z,92.30
2019-05-20T04:03:32.515Z,92.20
2019-05-20T04:06:01.269Z,92.20
2019-05-20T04:08:30.247Z,92.10
2019-05-20T04:10:59.191Z,92.30
2019-05-20T04:13:28.000Z,92.30
2019-05-20T04:15:57.090Z,92.20
2019-05-20T04:18:26.110Z,92.10
2019-05-20T04:20:55.096Z,92.10
2019-05-20T04:23:24.157Z,92.30
2019-05-20T04:25:52.928Z,92.20
2019-05-20T04:28:21.941Z,92.10
2019-05-20T04:30:50.761Z,92.20
2019-05-20T04:33:19.572Z,92.20
2019-05-20T04:35:49.734Z,92.30
2019-05-20T04:38:19.117Z,92.30
2019-05-20T04:40:48.032Z,92.50
2019-05-20T04:43:16.819Z,92.50
2019-05-20T04:45:46.274Z,92.80
2019-05-20T04:48:15.139Z,92.70
2019-05-20T04:50:43.921Z,92.90
2019-05-20T04:53:12.691Z,93.00
2019-05-20T04:55:41.456Z,92.80
2019-05-20T04:58:10.263Z,93.00
2019-05-20T05:00:54.762Z,93.10
2019-05-20T05:03:24.372Z,93.10
2019-05-20T05:05:53.312Z,93.40
2019-05-20T05:08:22.322Z,93.40
2019-05-20T05:10:51.341Z,93.50
2019-05-20T05:13:21.405Z,93.60
2019-05-20T05:15:50.172Z,93.60
2019-05-20T05:18:19.116Z,93.70
2019-05-20T05:20:48.193Z,93.60
2019-05-20T05:23:17.508Z,93.50
2019-05-20T05:25:46.708Z,93.90
2019-05-20T05:28:15.652Z,93.40
2019-05-20T05:30:45.982Z,93.40
2019-05-20T05:33:14.880Z,93.50
2019-05-20T05:35:52.921Z,93.50
2019-05-20T05:38:15.608Z,93.70
2019-05-20T05:40:44.469Z,93.50
2019-05-20T05:43:13.331Z,93.50
2019-05-20T05:45:42.080Z,93.40
2019-05-20T05:48:11.006Z,93.60
2019-05-20T05:50:39.836Z,93.60
2019-05-20T05:53:08.679Z,93.80
2019-05-20T05:55:37.515Z,93.00
2019-05-20T05:58:08.565Z,93.40
2019-05-20T06:00:36.965Z,93.30
2019-05-20T06:03:05.815Z,93.50
2019-05-20T06:05:34.645Z,93.40
2019-05-20T06:08:03.421Z,93.60
2019-05-20T06:10:35.560Z,93.30
2019-05-20T06:13:03.097Z,93.40
2019-05-20T06:15:31.991Z,93.20
2019-05-20T06:18:00.738Z,93.10
2019-05-20T06:20:29.622Z,93.00
2019-05-20T06:22:58.452Z,92.80
2019-05-20T06:25:27.334Z,93.00
2019-05-20T06:27:56.165Z,92.80
2019-05-20T06:30:37.355Z,93.10
2019-05-20T06:33:06.179Z,92.80
2019-05-20T06:35:35.130Z,93.00
2019-05-20T06:38:06.192Z,92.90
2019-05-20T06:40:35.084Z,93.20
2019-05-20T06:43:03.880Z,93.00
2019-05-20T06:45:32.811Z,92.80
2019-05-20T06:48:01.620Z,93.10
2019-05-20T06:50:30.511Z,92.80
2019-05-20T06:52:59.466Z,92.80
2019-05-20T06:55:28.283Z,93.10
2019-05-20T06:57:57.083Z,93.10
2019-05-20T07:00:34.515Z,92.80
2019-05-20T07:03:03.483Z,92.70
2019-05-20T07:05:32.385Z,92.80
2019-05-20T07:08:01.572Z,92.70
2019-05-20T07:10:30.572Z,92.80
2019-05-20T07:12:59.331Z,92.90
2019-05-20T07:15:28.183Z,92.90
2019-05-20T07:17:57.086Z,92.90
2019-05-20T07:20:25.923Z,92.80
2019-05-20T07:22:56.377Z,92.80
2019-05-20T07:25:25.364Z,92.50
2019-05-20T07:27:54.233Z,92.80
2019-05-20T07:30:23.720Z,92.50
2019-05-20T07:32:52.520Z,92.30
2019-05-20T07:35:30.209Z,92.10
2019-05-20T07:37:51.906Z,92.10
2019-05-20T07:40:30.903Z,92.10
2019-05-20T07:42:59.867Z,91.80
2019-05-20T07:45:30.229Z,91.70
2019-05-20T07:47:59.596Z,92.00
2019-05-20T07:50:29.702Z,91.00
2019-05-20T07:53:00.637Z,90.90
2019-05-20T07:55:32.560Z,91.30
2019-05-20T07:58:05.725Z,91.10
2019-05-20T08:00:34.608Z,91.30
2019-05-20T08:03:03.575Z,91.40
2019-05-20T08:05:32.327Z,91.90
2019-05-20T08:08:01.303Z,92.10
2019-05-20T08:10:30.473Z,91.70
2019-05-20T08:12:59.551Z,91.70
2019-05-20T08:15:28.363Z,91.60
2019-05-20T08:17:57.319Z,91.60
2019-05-20T08:20:26.223Z,91.30
2019-05-20T08:22:55.151Z,91.60
2019-05-20T08:25:24.093Z,91.70
2019-05-20T08:27:52.863Z,91.80
2019-05-20T08:30:31.745Z,91.40
2019-05-20T08:33:00.484Z,91.10
2019-05-20T08:35:29.276Z,91.60
2019-05-20T08:37:58.217Z,91.70
2019-05-20T08:40:27.116Z,91.70
2019-05-20T08:42:55.895Z,91.70
2019-05-20T08:45:24.758Z,91.70
2019-05-20T08:47:53.585Z,91.90
2019-05-20T08:50:22.503Z,91.50
2019-05-20T08:52:51.340Z,91.90
2019-05-20T08:55:20.199Z,92.00
2019-05-20T08:57:49.027Z,91.90
2019-05-20T09:00:24.084Z,91.90
2019-05-20T09:02:52.893Z,91.80
2019-05-20T09:05:21.660Z,91.30
2019-05-20T09:08:02.499Z,91.50
2019-05-20T09:10:21.013Z,91.70
2019-05-20T09:12:49.779Z,91.70
2019-05-20T09:15:19.117Z,92.00
2019-05-20T09:17:47.847Z,91.40
2019-05-20T09:20:16.882Z,91.40
2019-05-20T09:22:45.661Z,91.40
2019-05-20T09:25:15.492Z,90.80
2019-05-20T09:27:44.253Z,90.50
2019-05-20T09:30:13.755Z,90.50
2019-05-20T09:32:43.353Z,90.30
2019-05-20T09:35:12.609Z,90.00
2019-05-20T09:37:41.434Z,90.50
2019-05-20T09:40:10.966Z,90.50
2019-05-20T09:42:41.121Z,90.50
2019-05-20T09:45:10.415Z,90.40
2019-05-20T09:47:39.301Z,90.60
2019-05-20T09:50:08.348Z,90.30
2019-05-20T09:52:39.450Z,90.20
2019-05-20T09:55:08.403Z,90.00
2019-05-20T09:57:37.243Z,90.00
2019-05-20T10:00:07.226Z,90.10
2019-05-20T10:02:38.241Z,90.10
2019-05-20T10:05:06.968Z,89.60
2019-05-20T10:07:35.790Z,89.40
2019-05-20T10:10:04.809Z,89.40
2019-05-20T10:12:45.598Z,89.20
2019-05-20T10:15:04.559Z,89.00
2019-05-20T10:17:33.325Z,89.10
2019-05-20T10:20:02.212Z,89.60
2019-05-20T10:22:31.045Z,89.30
2019-05-20T10:24:59.944Z,89.10
2019-05-20T10:27:28.713Z,89.30
2019-05-20T10:29:57.565Z,89.50
2019-05-20T10:32:26.402Z,88.60
2019-05-20T10:34:55.171Z,89.20
2019-05-20T10:37:24.073Z,88.60
2019-05-20T10:39:52.913Z,89.40
2019-05-20T10:42:21.684Z,88.80
2019-05-20T10:44:50.721Z,88.90
2019-05-20T10:47:19.582Z,88.60
2019-05-20T10:49:49.082Z,87.70
2019-05-20T10:52:18.100Z,87.60
2019-05-20T10:54:46.879Z,88.50
2019-05-20T10:57:15.652Z,88.00
2019-05-20T10:59:44.418Z,88.20
2019-05-20T11:02:13.427Z,88.20
2019-05-20T11:04:42.202Z,88.40
2019-05-20T11:07:11.241Z,89.40
2019-05-20T11:09:40.045Z,88.90
2019-05-20T11:12:08.848Z,88.70
2019-05-20T11:14:37.598Z,88.20
2019-05-20T11:17:06.697Z,88.70
2019-05-20T11:19:35.528Z,88.60
2019-05-20T11:22:04.472Z,88.60
2019-05-20T11:24:33.140Z,88.70
2019-05-20T11:27:01.930Z,87.80
2019-05-20T11:29:30.704Z,88.00
2019-05-20T11:31:59.525Z,88.20
2019-05-20T11:34:28.287Z,88.50
2019-05-20T11:36:57.097Z,87.90
2019-05-20T11:39:33.392Z,88.70
2019-05-20T11:41:56.484Z,90.00
2019-05-20T11:44:25.281Z,89.10
2019-05-20T11:46:54.071Z,88.70
2019-05-20T11:49:23.105Z,87.90
2019-05-20T11:51:51.895Z,88.60
2019-05-20T11:54:20.750Z,88.40
2019-05-20T11:56:49.595Z,88.90
2019-05-20T11:59:19.197Z,89.70
2019-05-20T12:01:48.108Z,89.40
2019-05-20T12:04:16.976Z,89.50
2019-05-20T12:06:45.765Z,90.00
2019-05-20T12:09:14.808Z,90.20
2019-05-20T12:11:43.578Z,89.50
2019-05-20T12:14:12.412Z,90.20
2019-05-20T12:16:41.280Z,90.20
2019-05-20T12:19:10.178Z,90.40
2019-05-20T12:21:38.968Z,90.50
2019-05-20T12:24:07.742Z,90.00
2019-05-20T12:26:36.787Z,89.90
2019-05-20T12:29:05.693Z,89.70
2019-05-20T12:31:34.450Z,89.70
2019-05-20T12:34:03.305Z,89.60
2019-05-20T12:36:32.077Z,90.00
2019-05-20T12:39:00.893Z,90.20
2019-05-20T12:41:29.843Z,90.00
2019-05-20T12:44:11.064Z,89.90
2019-05-20T12:46:29.248Z,90.00
2019-05-20T12:48:58.122Z,89.50
2019-05-20T12:51:26.919Z,89.70
2019-05-20T12:53:55.699Z,89.00
2019-05-20T12:56:24.575Z,89.10
2019-05-20T12:58:53.683Z,88.70
2019-05-20T13:01:22.558Z,89.10
2019-05-20T13:03:51.492Z,88.60
2019-05-20T13:06:20.308Z,89.10
2019-05-20T13:08:49.082Z,87.70
2019-05-20T13:11:17.971Z,87.70
2019-05-20T13:13:46.796Z,87.40
2019-05-20T13:16:15.575Z,86.90
2019-05-20T13:18:55.346Z,86.40
2019-05-20T13:21:14.797Z,87.30
2019-05-20T13:23:43.578Z,86.20
2019-05-20T13:26:12.407Z,87.70
2019-05-20T13:28:41.186Z,87.20
2019-05-20T13:31:10.101Z,86.10
2019-05-20T13:33:38.872Z,85.80
2019-05-20T13:36:07.703Z,86.80
2019-05-20T13:38:36.459Z,86.60
2019-05-20T13:41:05.271Z,86.80
2019-05-20T13:43:34.099Z,86.90
2019-05-20T13:46:02.867Z,87.40
2019-05-20T13:48:31.894Z,86.70
2019-05-20T13:51:00.750Z,89.00
2019-05-20T13:53:29.522Z,88.70
2019-05-20T13:55:58.274Z,87.40
2019-05-20T13:58:27.056Z,88.00
2019-05-20T14:00:55.810Z,88.00
2019-05-20T14:03:24.639Z,89.20
2019-05-20T14:05:53.419Z,87.50
2019-05-20T14:08:22.515Z,87.90
2019-05-20T14:11:03.843Z,87.50
2019-05-20T14:13:21.843Z,88.90
2019-05-20T14:15:50.623Z,87.80
2019-05-20T14:18:19.372Z,87.60
2019-05-20T14:20:48.177Z,88.10
2019-05-20T14:23:16.942Z,87.70
2019-05-20T14:25:46.247Z,87.80
2019-05-20T14:28:15.028Z,89.00
2019-05-20T14:30:43.849Z,88.60
2019-05-20T14:33:12.628Z,88.40
2019-05-20T14:35:41.481Z,89.00
2019-05-20T14:38:10.227Z,88.30
2019-05-20T14:40:39.034Z,88.30
2019-05-20T14:43:07.873Z,89.00
2019-05-20T14:45:36.664Z,89.40
2019-05-20T14:48:05.694Z,90.00
2019-05-20T14:50:34.519Z,90.20
2019-05-20T14:53:03.335Z,90.10
2019-05-20T14:55:41.780Z,90.20
2019-05-20T14:58:02.651Z,90.30
2019-05-20T15:00:31.538Z,90.20
2019-05-20T15:03:00.290Z,90.20
2019-05-20T15:05:29.133Z,90.00
2019-05-20T15:07:58.117Z,90.30
2019-05-20T15:10:26.921Z,90.40
2019-05-20T15:12:55.761Z,90.10
2019-05-20T15:15:24.718Z,90.20
2019-05-20T15:17:53.734Z,90.40
2019-05-20T15:20:22.520Z,90.30
2019-05-20T15:22:51.399Z,90.10
2019-05-20T15:25:20.215Z,90.20
2019-05-20T15:27:49.956Z,90.00
2019-05-20T15:30:19.246Z,89.70
2019-05-20T15:32:48.025Z,89.30
2019-05-20T15:35:16.914Z,89.40
2019-05-20T15:37:46.253Z,89.60
2019-05-20T15:40:15.177Z,88.70
2019-05-20T15:42:43.925Z,88.20
2019-05-20T15:45:13.029Z,87.80
2019-05-20T15:47:41.850Z,87.90
2019-05-20T15:50:11.019Z,87.80
2019-05-20T15:52:40.070Z,88.20
2019-05-20T15:55:08.954Z,87.60
2019-05-20T15:57:37.764Z,87.50
2019-05-20T16:00:08.592Z,87.80
2019-05-20T16:02:37.719Z,87.60
2019-05-20T16:05:06.991Z,88.10
2019-05-20T16:07:36.002Z,87.60
2019-05-20T16:10:06.258Z,87.60
2019-05-20T16:12:35.343Z,87.10
2019-05-20T16:15:05.123Z,87.00
2019-05-20T16:17:33.933Z,87.30
2019-05-20T16:20:02.738Z,88.60
2019-05-20T16:22:31.494Z,87.70
2019-05-20T16:25:00.337Z,87.00
2019-05-20T16:27:32.714Z,87.30
2019-05-20T16:30:06.222Z,87.60
2019-05-20T16:32:30.997Z,87.80
2019-05-20T16:35:00.061Z,87.80
2019-05-20T16:37:28.868Z,87.60
2019-05-20T16:39:57.864Z,88.00
2019-05-20T16:42:27.002Z,87.30
2019-05-20T16:44:56.021Z,87.50
2019-05-20T16:47:24.931Z,87.80
2019-05-20T16:49:53.972Z,88.30
2019-05-20T16:52:23.079Z,88.50
2019-05-20T16:54:51.916Z,89.20
2019-05-20T16:57:20.978Z,88.80
2019-05-20T16:59:49.961Z,88.90
2019-05-20T17:02:18.936Z,89.20
2019-05-20T17:04:47.981Z,89.40
2019-05-20T17:07:16.823Z,89.90
2019-05-20T17:09:45.740Z,90.30
2019-05-20T17:12:14.630Z,90.40
2019-05-20T17:14:44.039Z,90.90
2019-05-20T17:17:12.806Z,90.40
2019-05-20T17:19:41.848Z,90.60
2019-05-20T17:22:11.034Z,90.80
2019-05-20T17:24:39.808Z,91.00
2019-05-20T17:27:08.638Z,90.90
2019-05-20T17:29:37.474Z,90.90
2019-05-20T17:32:06.420Z,91.10
2019-05-20T17:34:35.181Z,91.10
2019-05-20T17:37:04.338Z,91.20
2019-05-20T17:39:33.275Z,91.30
2019-05-20T17:42:02.113Z,91.20
2019-05-20T17:44:32.290Z,91.30
2019-05-20T17:47:01.257Z,91.40
2019-05-20T17:49:30.064Z,91.00
2019-05-20T17:51:58.994Z,91.10
2019-05-20T17:54:27.876Z,90.90
2019-05-20T17:56:56.727Z,91.00
2019-05-20T17:59:26.629Z,91.00
2019-05-20T18:01:55.353Z,91.20
2019-05-20T18:04:24.299Z,91.40
2019-05-20T18:06:53.238Z,91.50
2019-05-20T18:09:23.469Z,91.90
2019-05-20T18:11:52.386Z,91.90
2019-05-20T18:14:27.103Z,91.60
2019-05-20T18:16:56.039Z,91.80
2019-05-20T18:19:52.303Z,91.80
2019-05-20T18:22:37.557Z,91.90
2019-05-20T18:25:12.721Z,91.80
2019-05-20T18:27:45.375Z,91.90
2019-05-20T18:30:20.598Z,91.90
2019-05-20T18:32:52.024Z,92.00
2019-05-20T18:35:20.930Z,91.80
2019-05-20T18:37:49.850Z,92.00
2019-05-20T18:40:18.695Z,92.20
2019-05-20T18:42:56.731Z,92.40
2019-05-20T18:45:28.488Z,92.50
2019-05-20T18:47:58.684Z,92.60
2019-05-20T18:50:27.649Z,92.60
2019-05-20T18:52:56.707Z,92.60
2019-05-20T18:55:25.603Z,92.60
2019-05-20T18:57:54.531Z,92.30
2019-05-20T19:00:24.266Z,92.20
2019-05-20T19:02:53.066Z,92.40
2019-05-20T19:05:22.256Z,92.40
2019-05-20T19:07:51.321Z,92.20
2019-05-20T19:10:20.341Z,92.20
2019-05-20T19:12:49.137Z,92.60
2019-05-20T19:15:18.850Z,92.50
2019-05-20T19:17:47.707Z,92.50
2019-05-20T19:20:16.646Z,92.40
2019-05-20T19:22:45.498Z,92.40
2019-05-20T19:25:14.379Z,92.30
2019-05-20T19:27:43.777Z,92.30
2019-05-20T19:30:13.041Z,92.40
2019-05-20T19:32:42.237Z,92.40
2019-05-20T19:35:11.427Z,92.60
2019-05-20T19:37:41.102Z,92.60
2019-05-20T19:40:10.697Z,92.60
2019-05-20T19:42:39.733Z,92.60
2019-05-20T19:45:09.308Z,92.60
2019-05-20T19:47:38.732Z,92.60
2019-05-20T19:50:07.996Z,92.70
2019-05-20T19:52:37.144Z,92.60
2019-05-20T19:55:06.626Z,92.70
2019-05-20T19:57:36.026Z,93.00
2019-05-20T20:00:05.566Z,92.80
2019-05-20T20:02:34.921Z,92.80
2019-05-20T20:05:04.624Z,92.70
2019-05-20T20:07:33.624Z,92.90
2019-05-20T20:10:02.540Z,92.70
2019-05-20T20:12:31.453Z,93.10
2019-05-20T20:15:03.937Z,93.20
2019-05-20T20:17:32.795Z,93.20
2019-05-20T20:20:01.728Z,93.40
2019-05-20T20:22:30.629Z,93.40
2019-05-20T20:24:59.718Z,93.60
2019-05-20T20:27:28.697Z,93.70
2019-05-20T20:29:57.624Z,93.60
2019-05-20T20:32:37.582Z,93.30
2019-05-20T20:34:57.113Z,93.40
2019-05-20T20:37:25.856Z,93.30
2019-05-20T20:39:54.795Z,93.50
2019-05-20T20:42:24.007Z,93.40
2019-05-20T20:44:52.908Z,93.50
2019-05-20T20:47:21.794Z,93.40
2019-05-20T20:49:50.603Z,93.80
2019-05-20T20:52:19.444Z,93.90
2019-05-20T20:54:48.283Z,94.10
2019-05-20T20:57:17.119Z,94.30
2019-05-20T20:59:45.982Z,94.10
2019-05-20T21:02:14.857Z,94.10
2019-05-20T21:04:43.676Z,94.30
2019-05-20T21:07:12.795Z,94.50
2019-05-20T21:09:41.817Z,94.00
2019-05-20T21:12:10.701Z,94.00
2019-05-20T21:14:39.613Z,94.20
2019-05-20T21:17:09.391Z,94.20
2019-05-20T21:19:38.213Z,94.30
2019-05-20T21:22:07.821Z,94.20
2019-05-20T21:24:36.688Z,94.50
2019-05-20T21:27:05.753Z,94.70
2019-05-20T21:29:34.531Z,94.70
2019-05-20T21:32:03.374Z,94.40
2019-05-20T21:34:32.240Z,94.70
2019-05-20T21:37:01.144Z,94.50
2019-05-20T21:39:29.988Z,94.70
2019-05-20T21:41:58.833Z,94.60
2019-05-20T21:44:27.667Z,94.80
2019-05-20T21:46:56.844Z,94.60
2019-05-20T21:49:25.627Z,94.50
2019-05-20T21:51:57.311Z,94.70
2019-05-20T21:54:26.178Z,94.90
2019-05-20T21:56:54.967Z,94.90
2019-05-20T21:59:23.756Z,94.70
2019-05-20T22:01:52.595Z,94.70
2019-05-20T22:04:21.468Z,94.70
2019-05-20T22:06:50.466Z,94.70
2019-05-20T22:09:19.338Z,94.70
2019-05-20T22:11:48.220Z,95.10
2019-05-20T22:14:17.009Z,95.20
2019-05-20T22:16:45.865Z,95.30
2019-05-20T22:19:14.708Z,95.40
2019-05-20T22:21:55.776Z,95.60
2019-05-20T22:24:24.796Z,95.40
2019-05-20T22:26:53.620Z,95.40
2019-05-20T22:29:22.588Z,95.50
2019-05-20T22:31:51.670Z,95.40
2019-05-20T22:34:20.512Z,95.40
2019-05-20T22:36:49.525Z,95.40
2019-05-20T22:39:18.532Z,95.30
2019-05-20T22:41:47.350Z,95.40
2019-05-20T22:44:16.304Z,95.30
2019-05-20T22:46:45.113Z,95.20
2019-05-20T22:49:13.966Z,95.20
2019-05-20T22:51:42.814Z,95.20
2019-05-20T22:54:11.777Z,95.20
2019-05-20T22:56:40.739Z,95.20
2019-05-20T22:59:09.641Z,95.20
2019-05-20T23:01:38.560Z,95.60
2019-05-20T23:04:07.356Z,95.30
2019-05-20T23:06:36.210Z,95.30
2019-05-20T23:09:06.287Z,95.10
2019-05-20T23:11:35.242Z,95.20
2019-05-20T23:14:04.095Z,95.00
2019-05-20T23:16:32.940Z,95.20
2019-05-20T23:19:01.814Z,95.10
2019-05-20T23:21:30.692Z,95.50
2019-05-20T23:23:59.670Z,95.10
2019-05-20T23:26:28.604Z,95.00
2019-05-20T23:28:57.488Z,95.00
2019-05-20T23:31:26.675Z,94.80
2019-05-20T23:34:10.294Z,94.80
2019-05-20T23:36:26.238Z,94.80
2019-05-20T23:38:55.129Z,94.70
2019-05-20T23:41:26.178Z,94.70
2019-05-20T23:43:55.143Z,94.80
2019-05-20T23:46:24.228Z,94.70
2019-05-20T23:48:53.087Z,94.60
2019-05-20T23:51:21.894Z,94.70
2019-05-20T23:53:50.698Z,94.60
2019-05-20T23:56:19.585Z,95.10
2019-05-20T23:58:48.468Z,94.50
